Terminal Aerodrome Forecast
Issued by NWS Charleston, WV

Current Version | Previous Version | Graphics & Text | Print | Product List | Glossary On
Versions: 1 2 3 4 5 6 7 8 9 10 11 12 13 14 15 16 17 18 19 20 21 22
172
FTUS41 KRLX 180230 AAA
TAFHTS
TAF AMD
KHTS 180230Z 1803/1824 05006KT P6SM OVC050
      TEMPO 1803/1805 3SM -SHRA BKN030
     FM180500 06006KT 6SM BR OVC030
     FM180800 06006KT 3SM BR OVC015
     FM181700 06006KT P6SM SHRA BKN020=

USA.gov is the U.S. government's official web portal to all federal, state and local government web resources and services.